createdAt,value
2018-11-06T00:01:19.192Z,16.60
2018-11-06T00:03:52.657Z,16.70
2018-11-06T00:06:21.152Z,17.00
2018-11-06T00:08:49.653Z,17.77
2018-11-06T00:11:18.555Z,16.67
2018-11-06T00:13:47.939Z,19.23
2018-11-06T00:16:16.430Z,17.90
2018-11-06T00:18:44.879Z,17.00
2018-11-06T00:21:14.044Z,16.80
2018-11-06T00:23:43.198Z,15.53
2018-11-06T00:26:12.755Z,15.10
2018-11-06T00:28:41.195Z,14.50
2018-11-06T00:31:10.417Z,15.23
2018-11-06T00:33:38.860Z,14.20
2018-11-06T00:36:07.379Z,15.57
2018-11-06T00:38:36.056Z,16.47
2018-11-06T00:41:05.344Z,15.07
2018-11-06T00:43:33.806Z,14.57
2018-11-06T00:46:02.288Z,14.67
2018-11-06T00:48:30.723Z,15.17
2018-11-06T00:50:59.199Z,15.47
2018-11-06T00:53:27.659Z,16.20
2018-11-06T00:55:56.671Z,15.33
2018-11-06T00:58:25.098Z,15.83
2018-11-06T01:00:53.587Z,16.17
2018-11-06T01:03:26.167Z,15.47
2018-11-06T01:05:54.624Z,15.07
2018-11-06T01:08:23.085Z,15.70
2018-11-06T01:10:51.571Z,15.70
2018-11-06T01:13:20.030Z,15.27
2018-11-06T01:15:48.599Z,16.00
2018-11-06T01:18:17.041Z,17.20
2018-11-06T01:20:45.475Z,16.97
2018-11-06T01:23:13.954Z,16.27
2018-11-06T01:25:42.398Z,16.10
2018-11-06T01:28:11.509Z,15.97
2018-11-06T01:30:40.021Z,17.63
2018-11-06T01:33:08.505Z,16.53
2018-11-06T01:35:36.998Z,16.80
2018-11-06T01:38:05.979Z,16.90
2018-11-06T01:40:34.461Z,19.30
2018-11-06T01:43:03.615Z,16.37
2018-11-06T01:45:32.103Z,16.10
2018-11-06T01:48:00.574Z,16.20
2018-11-06T01:50:29.112Z,16.50
2018-11-06T01:52:57.643Z,13.40
2018-11-06T01:55:26.107Z,15.50
2018-11-06T01:57:54.595Z,13.93
2018-11-06T02:00:23.050Z,13.90
2018-11-06T02:02:51.586Z,13.90
2018-11-06T02:05:20.044Z,14.87
2018-11-06T02:07:49.571Z,15.17
2018-11-06T02:10:18.476Z,15.67
2018-11-06T02:12:47.485Z,14.87
2018-11-06T02:15:15.940Z,14.27
2018-11-06T02:17:45.197Z,13.83
2018-11-06T02:20:14.955Z,13.77
2018-11-06T02:22:44.153Z,13.97
2018-11-06T02:25:13.135Z,12.23
2018-11-06T02:27:41.590Z,13.43
2018-11-06T02:30:12.171Z,12.23
2018-11-06T02:32:41.314Z,13.83
2018-11-06T02:35:10.069Z,13.40
2018-11-06T02:37:38.866Z,13.03
2018-11-06T02:40:08.641Z,13.07
2018-11-06T02:42:37.173Z,13.93
2018-11-06T02:45:05.785Z,13.97
2018-11-06T02:47:34.278Z,14.50
2018-11-06T02:50:02.706Z,13.77
2018-11-06T02:52:31.215Z,12.60
2018-11-06T02:54:59.619Z,12.80
2018-11-06T02:57:28.563Z,12.07
2018-11-06T02:59:57.071Z,12.57
2018-11-06T03:02:25.576Z,11.83
2018-11-06T03:04:54.010Z,12.37
2018-11-06T03:07:22.551Z,13.73
2018-11-06T03:09:51.095Z,13.53
2018-11-06T03:12:19.562Z,12.43
2018-11-06T03:14:48.651Z,12.90
2018-11-06T03:17:17.100Z,13.17
2018-11-06T03:19:45.594Z,14.20
2018-11-06T03:22:14.826Z,14.27
2018-11-06T03:24:43.286Z,14.17
2018-11-06T03:27:12.687Z,14.23
2018-11-06T03:29:41.210Z,15.53
2018-11-06T03:32:09.680Z,13.07
2018-11-06T03:34:38.234Z,14.50
2018-11-06T03:37:06.977Z,12.90
2018-11-06T03:39:35.518Z,12.97
2018-11-06T03:42:03.936Z,12.00
2018-11-06T03:44:32.668Z,11.43
2018-11-06T03:47:01.566Z,14.33
2018-11-06T03:49:30.752Z,12.70
2018-11-06T03:51:59.477Z,11.90
2018-11-06T03:54:28.844Z,13.07
2018-11-06T03:56:57.408Z,11.53
2018-11-06T03:59:25.928Z,11.33
2018-11-06T04:01:54.371Z,12.30
2018-11-06T04:04:22.905Z,12.90
2018-11-06T04:06:52.151Z,12.13
2018-11-06T04:09:21.733Z,11.73
2018-11-06T04:11:50.349Z,12.10
2018-11-06T04:14:19.315Z,12.10
2018-11-06T04:16:47.987Z,13.00
2018-11-06T04:19:16.516Z,13.33
2018-11-06T04:21:44.954Z,13.73
2018-11-06T04:24:14.687Z,13.00
2018-11-06T04:26:43.131Z,12.27
2018-11-06T04:29:12.216Z,12.50
2018-11-06T04:31:40.973Z,11.93
2018-11-06T04:34:10.013Z,11.97
2018-11-06T04:36:39.166Z,10.87
2018-11-06T04:39:10.608Z,12.17
2018-11-06T04:41:39.361Z,12.27
2018-11-06T04:44:07.979Z,11.50
2018-11-06T04:46:36.481Z,12.63
2018-11-06T04:49:05.508Z,11.60
2018-11-06T04:51:33.959Z,11.33
2018-11-06T04:54:03.022Z,11.57
2018-11-06T04:56:32.019Z,11.67
2018-11-06T04:59:00.480Z,11.67
2018-11-06T05:01:28.966Z,11.40
2018-11-06T05:03:57.459Z,11.20
2018-11-06T05:06:26.065Z,11.60
2018-11-06T05:08:54.502Z,11.57
2018-11-06T05:11:23.579Z,11.70
2018-11-06T05:13:52.079Z,11.80
2018-11-06T05:16:20.536Z,12.10
2018-11-06T05:18:48.998Z,12.80
2018-11-06T05:21:17.426Z,12.80
2018-11-06T05:23:45.865Z,12.37
2018-11-06T05:26:14.436Z,13.03
2018-11-06T05:28:42.887Z,11.87
2018-11-06T05:31:11.346Z,11.13
2018-11-06T05:33:40.215Z,10.27
2018-11-06T05:36:09.172Z,10.23
2018-11-06T05:38:37.700Z,10.27
2018-11-06T05:41:07.349Z,10.80
2018-11-06T05:43:36.444Z,10.47
2018-11-06T05:46:05.064Z,11.80
2018-11-06T05:48:33.521Z,11.73
2018-11-06T05:51:02.249Z,11.63
2018-11-06T05:53:30.699Z,12.80
2018-11-06T05:55:59.589Z,11.83
2018-11-06T05:58:28.106Z,12.37
2018-11-06T06:00:56.575Z,12.80
2018-11-06T06:03:25.135Z,12.90
2018-11-06T06:05:54.105Z,12.67
2018-11-06T06:08:22.528Z,12.17
2018-11-06T06:10:51.940Z,12.83
2018-11-06T06:13:20.466Z,13.37
2018-11-06T06:15:48.879Z,15.13
2018-11-06T06:18:17.350Z,14.13
2018-11-06T06:20:45.944Z,13.13
2018-11-06T06:23:14.410Z,12.67
2018-11-06T06:25:42.888Z,12.67
2018-11-06T06:28:11.327Z,13.53
2018-11-06T06:30:40.146Z,16.83
2018-11-06T06:33:08.632Z,13.77
2018-11-06T06:35:37.136Z,12.97
2018-11-06T06:38:06.068Z,11.50
2018-11-06T06:40:34.577Z,10.63
2018-11-06T06:43:03.022Z,10.37
2018-11-06T06:45:31.534Z,10.13
2018-11-06T06:47:59.998Z,10.30
2018-11-06T06:50:28.886Z,10.93
2018-11-06T06:52:57.446Z,9.80
2018-11-06T06:55:26.104Z,10.53
2018-11-06T06:57:54.595Z,9.97
2018-11-06T07:00:23.759Z,10.00
2018-11-06T07:02:53.154Z,10.03
2018-11-06T07:05:22.735Z,9.63
2018-11-06T07:07:51.223Z,9.53
2018-11-06T07:10:22.027Z,9.93
2018-11-06T07:12:51.580Z,11.80
2018-11-06T07:15:21.179Z,9.23
2018-11-06T07:17:50.414Z,9.80
2018-11-06T07:20:20.111Z,10.93
2018-11-06T07:22:49.007Z,11.37
2018-11-06T07:25:17.692Z,10.77
2018-11-06T07:27:47.085Z,11.10
2018-11-06T07:30:20.450Z,12.13
2018-11-06T07:32:48.969Z,13.03
2018-11-06T07:35:19.007Z,11.60
2018-11-06T07:37:47.486Z,12.83
2018-11-06T07:40:18.688Z,12.57
2018-11-06T07:42:47.139Z,12.20
2018-11-06T07:45:17.188Z,12.23
2018-11-06T07:47:45.714Z,11.43
2018-11-06T07:50:14.669Z,12.47
2018-11-06T07:52:43.463Z,11.97
2018-11-06T07:55:13.384Z,11.70
2018-11-06T07:57:41.906Z,11.27
2018-11-06T08:00:14.523Z,10.70
2018-11-06T08:02:43.562Z,10.80
2018-11-06T08:05:13.358Z,11.10
2018-11-06T08:07:42.054Z,11.93
2018-11-06T08:10:11.028Z,12.00
2018-11-06T08:12:40.979Z,13.67
2018-11-06T08:15:09.835Z,14.67
2018-11-06T08:17:38.842Z,13.97
2018-11-06T08:20:07.771Z,15.70
2018-11-06T08:22:36.473Z,13.50
2018-11-06T08:25:05.943Z,16.30
2018-11-06T08:27:34.507Z,16.33
2018-11-06T08:30:02.955Z,15.80
2018-11-06T08:32:31.894Z,16.03
2018-11-06T08:34:59.966Z,15.13
2018-11-06T08:37:28.926Z,15.80
2018-11-06T08:39:57.394Z,15.97
2018-11-06T08:42:26.744Z,15.00
2018-11-06T08:44:55.670Z,14.97
2018-11-06T08:47:24.158Z,16.90
2018-11-06T08:49:53.123Z,16.53
2018-11-06T08:52:21.577Z,17.97
2018-11-06T08:54:50.759Z,17.80
2018-11-06T08:57:19.246Z,18.10
2018-11-06T08:59:47.735Z,17.13
2018-11-06T09:02:16.255Z,16.50
2018-11-06T09:04:44.752Z,15.10
2018-11-06T09:07:13.830Z,15.13
2018-11-06T09:09:42.288Z,16.77
2018-11-06T09:12:10.971Z,16.57
2018-11-06T09:14:39.415Z,14.90
2018-11-06T09:17:08.004Z,15.20
2018-11-06T09:19:36.471Z,14.57
2018-11-06T09:22:04.914Z,14.03
2018-11-06T09:24:34.133Z,14.07
2018-11-06T09:27:02.624Z,14.30
2018-11-06T09:29:32.489Z,13.33
2018-11-06T09:32:03.417Z,12.73
2018-11-06T09:34:32.033Z,14.37
2018-11-06T09:37:00.480Z,13.87
2018-11-06T09:39:29.198Z,14.33
2018-11-06T09:41:57.668Z,14.07
2018-11-06T09:44:26.207Z,14.13
2018-11-06T09:46:54.712Z,14.23
2018-11-06T09:49:23.172Z,13.93
2018-11-06T09:51:51.708Z,14.83
2018-11-06T09:54:21.306Z,14.80
2018-11-06T09:56:49.865Z,14.47
2018-11-06T09:59:19.216Z,14.53
2018-11-06T10:01:47.811Z,13.70
2018-11-06T10:04:16.334Z,14.90
2018-11-06T10:06:45.017Z,13.50
2018-11-06T10:09:14.527Z,14.73
2018-11-06T10:11:43.012Z,13.43
2018-11-06T10:14:11.675Z,15.10
2018-11-06T10:16:40.135Z,15.87
2018-11-06T10:19:08.641Z,14.03
2018-11-06T10:21:37.193Z,14.43
2018-11-06T10:24:06.402Z,13.40
2018-11-06T10:26:35.683Z,14.70
2018-11-06T10:29:04.570Z,15.57
2018-11-06T10:31:33.796Z,15.40
2018-11-06T10:34:02.273Z,14.93
2018-11-06T10:36:32.106Z,15.00
2018-11-06T10:39:00.598Z,16.20
2018-11-06T10:41:30.112Z,14.97
2018-11-06T10:43:58.630Z,14.90
2018-11-06T10:46:27.125Z,15.00
2018-11-06T10:48:55.535Z,13.90
2018-11-06T10:51:24.018Z,14.80
2018-11-06T10:53:52.536Z,15.87
2018-11-06T10:56:21.044Z,16.00
2018-11-06T10:58:49.509Z,16.07
2018-11-06T11:02:23.680Z,14.07
2018-11-06T11:04:52.163Z,13.93
2018-11-06T11:07:20.664Z,13.67
2018-11-06T11:09:49.702Z,12.10
2018-11-06T11:12:19.207Z,12.07
2018-11-06T11:14:47.691Z,11.87
2018-11-06T11:17:16.203Z,11.43
2018-11-06T11:19:44.716Z,12.10
2018-11-06T11:22:13.267Z,12.87
2018-11-06T11:24:41.793Z,11.60
2018-11-06T11:27:10.688Z,12.43
2018-11-06T11:29:39.432Z,12.17
2018-11-06T11:32:08.571Z,12.43
2018-11-06T11:34:37.091Z,12.37
2018-11-06T11:37:05.523Z,11.60
2018-11-06T11:39:33.935Z,11.50
2018-11-06T11:42:02.523Z,11.53
2018-11-06T11:44:30.999Z,10.00
2018-11-06T11:46:59.616Z,10.00
2018-11-06T11:49:28.382Z,9.67
2018-11-06T11:51:57.679Z,9.23
2018-11-06T11:54:26.205Z,9.30
2018-11-06T11:56:55.644Z,8.57
2018-11-06T11:59:24.124Z,8.77
2018-11-06T12:01:52.827Z,8.97
2018-11-06T12:04:22.372Z,9.47
2018-11-06T12:06:50.943Z,9.03
2018-11-06T12:09:19.403Z,9.00
2018-11-06T12:11:48.357Z,8.67
2018-11-06T12:14:17.547Z,9.13
2018-11-06T12:16:46.135Z,7.87
2018-11-06T12:19:16.039Z,8.87
2018-11-06T12:21:44.676Z,9.30
2018-11-06T12:24:13.870Z,9.13
2018-11-06T12:26:43.343Z,8.90
2018-11-06T12:29:12.480Z,8.50
2018-11-06T12:31:40.951Z,8.30
2018-11-06T12:34:09.472Z,8.90
2018-11-06T12:36:38.541Z,8.90
2018-11-06T12:39:10.028Z,8.83
2018-11-06T12:41:38.471Z,8.40
2018-11-06T12:44:07.260Z,7.97
2018-11-06T12:46:36.239Z,8.80
2018-11-06T12:49:06.139Z,9.40
2018-11-06T12:51:34.710Z,8.93
2018-11-06T12:54:03.488Z,8.63
2018-11-06T12:56:32.006Z,8.47
2018-11-06T12:59:00.606Z,9.30
2018-11-06T13:01:29.227Z,9.33
2018-11-06T13:03:57.715Z,9.43
2018-11-06T13:06:26.226Z,9.53
2018-11-06T13:08:54.831Z,9.47
2018-11-06T13:11:23.616Z,9.07
2018-11-06T13:13:52.372Z,8.37
2018-11-06T13:16:20.892Z,9.37
2018-11-06T13:18:49.398Z,8.57
2018-11-06T13:21:17.926Z,8.90
2018-11-06T13:23:46.402Z,8.13
2018-11-06T13:26:15.126Z,8.23
2018-11-06T13:28:43.954Z,8.03
2018-11-06T13:31:13.415Z,9.00
2018-11-06T13:33:42.580Z,19.00
2018-11-06T13:36:11.803Z,16.70
2018-11-06T13:38:40.349Z,14.43
2018-11-06T13:41:09.395Z,14.43
2018-11-06T13:43:38.044Z,14.60
2018-11-06T13:46:06.471Z,14.23
2018-11-06T13:48:34.940Z,14.33
2018-11-06T13:51:03.439Z,14.53
2018-11-06T13:53:31.951Z,14.80
2018-11-06T13:56:00.432Z,15.00
2018-11-06T13:58:28.949Z,15.67
2018-11-06T14:00:57.402Z,14.90
2018-11-06T14:03:25.914Z,17.03
2018-11-06T14:05:54.519Z,15.13
2018-11-06T14:08:22.993Z,15.87
2018-11-06T14:10:52.024Z,16.20
2018-11-06T14:13:20.568Z,16.40
2018-11-06T14:15:49.087Z,16.07
2018-11-06T14:18:17.634Z,15.57
2018-11-06T14:20:46.951Z,15.60
2018-11-06T14:23:15.503Z,17.00
2018-11-06T14:25:44.004Z,17.30
2018-11-06T14:28:12.509Z,16.80
2018-11-06T14:30:40.945Z,16.87
2018-11-06T14:33:09.451Z,21.23
2018-11-06T14:35:38.601Z,19.07
2018-11-06T14:38:07.193Z,16.63
2018-11-06T14:40:35.695Z,17.10
2018-11-06T14:43:04.260Z,16.23
2018-11-06T14:45:32.806Z,16.00
2018-11-06T14:48:01.535Z,15.80
2018-11-06T14:50:29.911Z,16.57
2018-11-06T14:52:58.724Z,16.50
2018-11-06T14:55:27.259Z,15.97
2018-11-06T14:57:55.748Z,16.70
2018-11-06T15:00:25.403Z,16.03
2018-11-06T15:02:54.279Z,16.77
2018-11-06T15:05:23.388Z,15.60
2018-11-06T15:07:56.056Z,15.47
2018-11-06T15:10:24.596Z,15.93
2018-11-06T15:12:53.162Z,15.47
2018-11-06T15:15:25.331Z,15.70
2018-11-06T15:17:53.904Z,116.60
2018-11-06T15:20:23.185Z,56.73
2018-11-06T15:22:52.717Z,56.57
2018-11-06T15:25:21.291Z,32.87
2018-11-06T15:27:49.809Z,27.97
2018-11-06T15:30:19.366Z,20.50
2018-11-06T15:32:47.863Z,18.13
2018-11-06T15:35:17.933Z,15.33
2018-11-06T15:37:46.410Z,15.10
2018-11-06T15:40:16.491Z,14.33
2018-11-06T15:42:45.185Z,14.20
2018-11-06T15:45:15.838Z,15.23
2018-11-06T15:47:45.206Z,16.97
2018-11-06T15:50:14.913Z,16.77
2018-11-06T15:52:44.198Z,16.73
2018-11-06T15:55:12.675Z,15.33
2018-11-06T15:57:41.165Z,13.27
2018-11-06T16:00:13.675Z,13.37
2018-11-06T16:02:42.959Z,14.60
2018-11-06T16:05:11.537Z,13.80
2018-11-06T16:07:41.231Z,12.80
2018-11-06T16:10:13.583Z,15.23
2018-11-06T16:12:42.521Z,14.40
2018-11-06T16:15:11.186Z,15.13
2018-11-06T16:17:39.801Z,14.57
2018-11-06T16:20:10.349Z,15.67
2018-11-06T16:22:38.863Z,18.20
2018-11-06T16:25:10.171Z,22.03
2018-11-06T16:27:39.438Z,16.00
2018-11-06T16:30:09.902Z,21.87
2018-11-06T16:32:38.592Z,17.23
2018-11-06T16:35:08.679Z,15.97
2018-11-06T16:37:37.531Z,16.07
2018-11-06T16:40:06.490Z,15.53
2018-11-06T16:42:34.971Z,17.07
2018-11-06T16:45:03.494Z,15.83
2018-11-06T16:47:31.982Z,15.47
2018-11-06T16:50:00.525Z,15.07
2018-11-06T16:52:29.023Z,17.30
2018-11-06T16:54:57.568Z,16.93
2018-11-06T16:57:26.040Z,18.30
2018-11-06T16:59:54.777Z,17.83
2018-11-06T17:02:23.200Z,16.50
2018-11-06T17:04:51.650Z,18.10
2018-11-06T17:07:20.160Z,18.10
2018-11-06T17:09:48.651Z,17.27
2018-11-06T17:12:17.654Z,18.23
2018-11-06T17:14:46.135Z,18.63
2018-11-06T17:17:14.741Z,19.90
2018-11-06T17:19:43.126Z,20.00
2018-11-06T17:22:11.613Z,24.20
2018-11-06T17:24:41.856Z,23.67
2018-11-06T17:27:10.394Z,23.77
2018-11-06T17:29:38.805Z,25.67
2018-11-06T17:32:07.254Z,23.53
2018-11-06T17:34:35.800Z,24.67
2018-11-06T17:37:04.920Z,24.17
2018-11-06T17:39:33.727Z,25.83
2018-11-06T17:42:02.194Z,26.77
2018-11-06T17:44:30.733Z,26.40
2018-11-06T17:46:59.257Z,24.37
2018-11-06T17:49:27.733Z,23.73
2018-11-06T17:51:56.231Z,22.63
2018-11-06T17:54:24.694Z,23.90
2018-11-06T17:56:53.563Z,23.73
2018-11-06T17:59:22.032Z,21.13
2018-11-06T18:01:50.484Z,23.73
2018-11-06T18:04:19.023Z,30.13
2018-11-06T18:06:47.459Z,26.40
2018-11-06T18:09:15.971Z,22.93
2018-11-06T18:11:44.473Z,21.97
2018-11-06T18:14:12.968Z,20.37
2018-11-06T18:16:41.444Z,21.23
2018-11-06T18:19:09.931Z,26.37
2018-11-06T18:21:38.454Z,23.97
2018-11-06T18:24:06.881Z,21.60
2018-11-06T18:26:35.448Z,19.80
2018-11-06T18:29:03.897Z,19.57
2018-11-06T18:31:32.612Z,18.53
2018-11-06T18:34:01.102Z,19.07
2018-11-06T18:36:29.717Z,20.53
2018-11-06T18:38:58.264Z,23.10
2018-11-06T18:41:29.961Z,18.00
2018-11-06T18:43:59.156Z,20.77
2018-11-06T18:46:27.558Z,20.23
2018-11-06T18:48:56.026Z,19.27
2018-11-06T18:51:24.502Z,18.57
2018-11-06T18:53:53.938Z,17.77
2018-11-06T18:56:22.446Z,18.90
2018-11-06T18:58:50.914Z,28.77
2018-11-06T19:01:19.383Z,28.87
2018-11-06T19:03:47.939Z,31.90
2018-11-06T19:06:16.438Z,75.93
2018-11-06T19:08:44.977Z,46.30
2018-11-06T19:11:13.532Z,19.67
2018-11-06T19:13:42.068Z,20.33
2018-11-06T19:16:10.531Z,17.83
2018-11-06T19:18:39.050Z,16.53
2018-11-06T19:21:07.543Z,18.73
2018-11-06T19:23:37.022Z,17.73
2018-11-06T19:26:06.038Z,22.70
2018-11-06T19:28:34.613Z,17.93
2018-11-06T19:31:03.097Z,16.43
2018-11-06T19:33:31.897Z,16.23
2018-11-06T19:36:00.498Z,17.63
2018-11-06T19:38:29.759Z,16.07
2018-11-06T19:40:58.206Z,17.27
2018-11-06T19:43:26.710Z,17.80
2018-11-06T19:45:55.143Z,16.30
2018-11-06T19:48:24.231Z,16.03
2018-11-06T19:50:53.310Z,15.83
2018-11-06T19:53:22.046Z,16.53
2018-11-06T19:55:50.556Z,16.40
2018-11-06T19:58:20.044Z,15.37
2018-11-06T20:00:48.596Z,16.70
2018-11-06T20:03:16.971Z,18.07
2018-11-06T20:05:45.556Z,20.03
2018-11-06T20:08:14.027Z,18.90
2018-11-06T20:10:42.520Z,22.37
2018-11-06T20:13:10.976Z,24.67
2018-11-06T20:15:41.022Z,22.77
2018-11-06T20:18:09.551Z,20.47
2018-11-06T20:20:38.511Z,19.03
2018-11-06T20:23:06.991Z,20.47
2018-11-06T20:25:35.471Z,21.40
2018-11-06T20:28:04.053Z,21.13
2018-11-06T20:30:32.571Z,20.13
2018-11-06T20:33:01.132Z,18.07
2018-11-06T20:35:29.507Z,16.13
2018-11-06T20:37:58.074Z,15.63
2018-11-06T20:40:27.136Z,25.63
2018-11-06T20:42:55.745Z,24.83
2018-11-06T20:45:24.531Z,20.10
2018-11-06T20:47:53.008Z,17.77
2018-11-06T20:50:22.909Z,20.30
2018-11-06T20:52:51.443Z,21.67
2018-11-06T20:55:20.242Z,21.27
2018-11-06T20:57:48.669Z,20.57
2018-11-06T21:00:24.144Z,20.93
2018-11-06T21:02:54.342Z,20.93
2018-11-06T21:05:22.824Z,20.00
2018-11-06T21:07:51.315Z,20.57
2018-11-06T21:10:21.105Z,18.73
2018-11-06T21:12:49.546Z,18.17
2018-11-06T21:15:18.039Z,17.93
2018-11-06T21:17:46.592Z,20.23
2018-11-06T21:20:15.718Z,19.43
2018-11-06T21:22:44.335Z,19.67
2018-11-06T21:25:13.507Z,19.30
2018-11-06T21:27:42.434Z,18.03
2018-11-06T21:30:14.704Z,17.90
2018-11-06T21:32:44.473Z,19.70
2018-11-06T21:35:13.001Z,19.03
2018-11-06T21:37:41.512Z,19.57
2018-11-06T21:40:13.482Z,18.23
2018-11-06T21:42:42.937Z,18.00
2018-11-06T21:45:12.532Z,18.93
2018-11-06T21:47:41.713Z,18.83
2018-11-06T21:50:11.397Z,17.50
2018-11-06T21:52:40.025Z,16.87
2018-11-06T21:55:09.917Z,15.70
2018-11-06T21:57:38.613Z,16.00
2018-11-06T22:00:10.804Z,16.07
2018-11-06T22:02:39.167Z,14.43
2018-11-06T22:05:09.251Z,15.47
2018-11-06T22:07:37.695Z,15.47
2018-11-06T22:10:08.511Z,15.90
2018-11-06T22:12:37.138Z,15.73
2018-11-06T22:15:06.537Z,16.07
2018-11-06T22:17:35.491Z,15.23
2018-11-06T22:20:04.959Z,15.00
2018-11-06T22:22:33.514Z,15.97
2018-11-06T22:29:48.591Z,14.80
2018-11-06T22:32:17.931Z,16.23
2018-11-06T22:34:46.321Z,15.70
2018-11-06T22:37:14.825Z,15.17
2018-11-06T22:39:43.321Z,16.30
2018-11-06T22:42:11.847Z,16.60
2018-11-06T22:44:40.285Z,15.13
2018-11-06T22:47:09.676Z,15.53
2018-11-06T22:49:38.270Z,15.13
2018-11-06T22:52:07.170Z,16.03
2018-11-06T22:54:36.639Z,16.43
2018-11-06T22:57:05.852Z,15.40
2018-11-06T22:59:34.301Z,16.50
2018-11-06T23:02:03.778Z,14.77
2018-11-06T23:04:32.260Z,15.40
2018-11-06T23:07:01.461Z,16.70
2018-11-06T23:09:29.843Z,16.00
2018-11-06T23:11:58.320Z,16.73
2018-11-06T23:14:26.997Z,16.63
2018-11-06T23:16:56.392Z,15.57
2018-11-06T23:19:24.858Z,16.53
2018-11-06T23:21:54.038Z,15.77
2018-11-06T23:24:22.479Z,15.67
2018-11-06T23:26:51.535Z,16.13
2018-11-06T23:29:19.973Z,15.33
2018-11-06T23:31:48.395Z,13.97
2018-11-06T23:34:16.825Z,14.50
2018-11-06T23:36:46.008Z,13.93
2018-11-06T23:39:14.746Z,14.97
2018-11-06T23:41:43.209Z,15.60
2018-11-06T23:44:11.667Z,15.10
2018-11-06T23:46:40.172Z,15.33
2018-11-06T23:49:09.594Z,15.20
2018-11-06T23:51:38.043Z,15.40
2018-11-06T23:54:06.463Z,14.60
2018-11-06T23:56:35.093Z,15.17
2018-11-06T23:59:03.475Z,13.33
